sensor_id;sensor_type;location;lat;lon;timestamp;pressure;altitude;pressure_sealevel;temperature
75773;BMP280;64381;0.000;0.000;2022-12-18T00:00:59;96352.97;;;19.00
75773;BMP280;64381;0.000;0.000;2022-12-18T00:03:25;96351.47;;;18.99
75773;BMP280;64381;0.000;0.000;2022-12-18T00:05:51;96346.69;;;19.00
75773;BMP280;64381;0.000;0.000;2022-12-18T00:08:17;96346.69;;;19.00
75773;BMP280;64381;0.000;0.000;2022-12-18T00:10:43;96345.19;;;18.99
75773;BMP280;64381;0.000;0.000;2022-12-18T00:13:09;96340.41;;;18.99
75773;BMP280;64381;0.000;0.000;2022-12-18T00:15:35;96338.91;;;18.98
75773;BMP280;64381;0.000;0.000;2022-12-18T00:18:00;96338.91;;;18.98
75773;BMP280;64381;0.000;0.000;2022-12-18T00:20:25;96334.88;;;18.99
75773;BMP280;64381;0.000;0.000;2022-12-18T00:22:52;96334.13;;;18.99
75773;BMP280;64381;0.000;0.000;2022-12-18T00:25:17;96343.16;;;18.99
75773;BMP280;64381;0.000;0.000;2022-12-18T00:27:42;96347.94;;;18.99
75773;BMP280;64381;0.000;0.000;2022-12-18T00:30:08;96340.41;;;18.99
75773;BMP280;64381;0.000;0.000;2022-12-18T00:32:33;96345.94;;;18.99
75773;BMP280;64381;0.000;0.000;2022-12-18T00:34:59;96339.66;;;18.99
75773;BMP280;64381;0.000;0.000;2022-12-18T00:37:24;96344.44;;;18.98
75773;BMP280;64381;0.000;0.000;2022-12-18T00:39:49;96360.50;;;19.00
75773;BMP280;64381;0.000;0.000;2022-12-18T00:42:14;96371.56;;;19.00
75773;BMP280;64381;0.000;0.000;2022-12-18T00:44:40;96373.34;;;18.97
75773;BMP280;64381;0.000;0.000;2022-12-18T00:47:05;96372.84;;;18.99
75773;BMP280;64381;0.000;0.000;2022-12-18T00:49:30;96358.25;;;18.98
75773;BMP280;64381;0.000;0.000;2022-12-18T00:51:55;96358.50;;;19.00
75773;BMP280;64381;0.000;0.000;2022-12-18T00:54:20;96363.03;;;18.98
75773;BMP280;64381;0.000;0.000;2022-12-18T00:56:46;96366.56;;;18.98
75773;BMP280;64381;0.000;0.000;2022-12-18T00:59:11;96371.34;;;18.98
75773;BMP280;64381;0.000;0.000;2022-12-18T01:01:36;96378.38;;;18.99
75773;BMP280;64381;0.000;0.000;2022-12-18T01:04:02;96369.31;;;18.98
75773;BMP280;64381;0.000;0.000;2022-12-18T01:06:28;96376.88;;;18.98
75773;BMP280;64381;0.000;0.000;2022-12-18T01:08:53;96376.34;;;18.99
75773;BMP280;64381;0.000;0.000;2022-12-18T01:11:19;96378.38;;;18.99
75773;BMP280;64381;0.000;0.000;2022-12-18T01:13:45;96387.91;;;18.98
75773;BMP280;64381;0.000;0.000;2022-12-18T01:16:14;96390.16;;;18.99
75773;BMP280;64381;0.000;0.000;2022-12-18T01:18:40;96389.41;;;18.99
75773;BMP280;64381;0.000;0.000;2022-12-18T01:21:14;96396.44;;;19.00
75773;BMP280;64381;0.000;0.000;2022-12-18T01:23:40;96403.25;;;18.99
75773;BMP280;64381;0.000;0.000;2022-12-18T01:26:07;96410.28;;;19.00
75773;BMP280;64381;0.000;0.000;2022-12-18T01:28:32;96415.06;;;18.99
75773;BMP280;64381;0.000;0.000;2022-12-18T01:31:09;96413.03;;;19.00
75773;BMP280;64381;0.000;0.000;2022-12-18T01:33:34;96422.59;;;18.99
75773;BMP280;64381;0.000;0.000;2022-12-18T01:35:59;96432.16;;;18.98
75773;BMP280;64381;0.000;0.000;2022-12-18T01:38:25;96426.63;;;18.98
75773;BMP280;64381;0.000;0.000;2022-12-18T01:40:59;96421.34;;;19.00
75773;BMP280;64381;0.000;0.000;2022-12-18T01:44:00;96427.38;;;18.98
75773;BMP280;64381;0.000;0.000;2022-12-18T01:46:27;96428.66;;;18.97
75773;BMP280;64381;0.000;0.000;2022-12-18T01:48:59;96430.91;;;18.99
75773;BMP280;64381;0.000;0.000;2022-12-18T01:51:27;96432.91;;;18.98
75773;BMP280;64381;0.000;0.000;2022-12-18T01:53:52;96432.72;;;18.96
75773;BMP280;64381;0.000;0.000;2022-12-18T01:56:19;96429.41;;;18.98
75773;BMP280;64381;0.000;0.000;2022-12-18T01:59:04;96432.91;;;18.98
75773;BMP280;64381;0.000;0.000;2022-12-18T02:01:32;96425.88;;;18.97
75773;BMP280;64381;0.000;0.000;2022-12-18T02:04:24;96428.13;;;18.99
75773;BMP280;64381;0.000;0.000;2022-12-18T02:07:06;96432.91;;;18.98
75773;BMP280;64381;0.000;0.000;2022-12-18T02:12:42;96420.91;;;18.96
75773;BMP280;64381;0.000;0.000;2022-12-18T02:15:23;96416.84;;;18.97
75773;BMP280;64381;0.000;0.000;2022-12-18T02:18:02;96409.13;;;18.95
75773;BMP280;64381;0.000;0.000;2022-12-18T02:20:36;96413.56;;;18.98
75773;BMP280;64381;0.000;0.000;2022-12-18T02:23:36;96417.06;;;18.99
75773;BMP280;64381;0.000;0.000;2022-12-18T02:28:45;96417.59;;;18.97
75773;BMP280;64381;0.000;0.000;2022-12-18T02:31:16;96414.06;;;18.97
75773;BMP280;64381;0.000;0.000;2022-12-18T02:33:44;96410.03;;;18.98
75773;BMP280;64381;0.000;0.000;2022-12-18T02:36:10;96414.81;;;18.97
75773;BMP280;64381;0.000;0.000;2022-12-18T02:38:38;96416.84;;;18.97
75773;BMP280;64381;0.000;0.000;2022-12-18T02:41:05;96422.38;;;18.97
75773;BMP280;64381;0.000;0.000;2022-12-18T02:43:31;96418.34;;;18.98
75773;BMP280;64381;0.000;0.000;2022-12-18T02:45:58;96406.53;;;18.97
75773;BMP280;64381;0.000;0.000;2022-12-18T02:48:30;96413.56;;;18.98
75773;BMP280;64381;0.000;0.000;2022-12-18T02:51:04;96406.00;;;18.99
75773;BMP280;64381;0.000;0.000;2022-12-18T02:53:45;96401.97;;;19.00
75773;BMP280;64381;0.000;0.000;2022-12-18T02:56:20;96406.00;;;18.99
75773;BMP280;64381;0.000;0.000;2022-12-18T02:58:59;96415.06;;;18.99
75773;BMP280;64381;0.000;0.000;2022-12-18T03:04:09;96418.34;;;18.98
75773;BMP280;64381;0.000;0.000;2022-12-18T03:06:42;96417.81;;;18.99
75773;BMP280;64381;0.000;0.000;2022-12-18T03:09:14;96417.81;;;18.99
75773;BMP280;64381;0.000;0.000;2022-12-18T03:11:42;96417.59;;;18.97
75773;BMP280;64381;0.000;0.000;2022-12-18T03:14:10;96407.28;;;18.98
75773;BMP280;64381;0.000;0.000;2022-12-18T03:16:39;96411.53;;;18.99
75773;BMP280;64381;0.000;0.000;2022-12-18T03:19:10;96406.00;;;18.99
75773;BMP280;64381;0.000;0.000;2022-12-18T03:21:42;96411.53;;;18.99
75773;BMP280;64381;0.000;0.000;2022-12-18T03:24:09;96398.22;;;18.97
75773;BMP280;64381;0.000;0.000;2022-12-18T03:26:35;96401.75;;;18.98
75773;BMP280;64381;0.000;0.000;2022-12-18T03:32:02;96403.75;;;18.97
75773;BMP280;64381;0.000;0.000;2022-12-18T03:34:33;96412.81;;;18.98
75773;BMP280;64381;0.000;0.000;2022-12-18T03:36:59;96403.75;;;18.97
75773;BMP280;64381;0.000;0.000;2022-12-18T03:39:24;96404.34;;;18.96
75773;BMP280;64381;0.000;0.000;2022-12-18T03:42:10;96408.78;;;18.99
75773;BMP280;64381;0.000;0.000;2022-12-18T03:45:06;96414.81;;;18.97
75773;BMP280;64381;0.000;0.000;2022-12-18T03:48:14;96420.34;;;18.97
75773;BMP280;64381;0.000;0.000;2022-12-18T03:50:57;96413.91;;;18.95
75773;BMP280;64381;0.000;0.000;2022-12-18T03:53:32;96420.34;;;18.97
75773;BMP280;64381;0.000;0.000;2022-12-18T03:56:01;96414.06;;;18.97
75773;BMP280;64381;0.000;0.000;2022-12-18T03:58:28;96410.78;;;18.98
75773;BMP280;64381;0.000;0.000;2022-12-18T04:00:56;96409.28;;;18.97
75773;BMP280;64381;0.000;0.000;2022-12-18T04:03:24;96409.28;;;18.97
75773;BMP280;64381;0.000;0.000;2022-12-18T04:05:51;96412.06;;;18.97
75773;BMP280;64381;0.000;0.000;2022-12-18T04:08:17;96428.66;;;18.97
75773;BMP280;64381;0.000;0.000;2022-12-18T04:10:43;96420.34;;;18.97
75773;BMP280;64381;0.000;0.000;2022-12-18T04:13:09;96411.31;;;18.97
75773;BMP280;64381;0.000;0.000;2022-12-18T04:15:35;96411.31;;;18.97
75773;BMP280;64381;0.000;0.000;2022-12-18T04:18:01;96414.63;;;18.95
75773;BMP280;64381;0.000;0.000;2022-12-18T04:20:27;96416.13;;;18.96
75773;BMP280;64381;0.000;0.000;2022-12-18T04:22:52;96416.84;;;18.97
75773;BMP280;64381;0.000;0.000;2022-12-18T04:25:18;96419.59;;;18.97
75773;BMP280;64381;0.000;0.000;2022-12-18T04:27:43;96427.19;;;18.96
75773;BMP280;64381;0.000;0.000;2022-12-18T04:30:08;96427.91;;;18.97
75773;BMP280;64381;0.000;0.000;2022-12-18T04:32:34;96430.66;;;18.97
75773;BMP280;64381;0.000;0.000;2022-12-18T04:34:59;96429.22;;;18.96
75773;BMP280;64381;0.000;0.000;2022-12-18T04:37:25;96429.22;;;18.96
75773;BMP280;64381;0.000;0.000;2022-12-18T04:39:50;96434.75;;;18.96
75773;BMP280;64381;0.000;0.000;2022-12-18T04:42:15;96432.72;;;18.96
75773;BMP280;64381;0.000;0.000;2022-12-18T04:44:40;96420.16;;;18.95
75773;BMP280;64381;0.000;0.000;2022-12-18T04:47:06;96420.16;;;18.95
75773;BMP280;64381;0.000;0.000;2022-12-18T04:49:31;96419.44;;;18.95
75773;BMP280;64381;0.000;0.000;2022-12-18T04:51:56;96422.94;;;18.95
75773;BMP280;64381;0.000;0.000;2022-12-18T04:54:21;96433.44;;;18.97
75773;BMP280;64381;0.000;0.000;2022-12-18T04:56:46;96449.09;;;18.94
75773;BMP280;64381;0.000;0.000;2022-12-18T04:59:12;96447.81;;;18.95
75773;BMP280;64381;0.000;0.000;2022-12-18T05:01:37;96446.56;;;18.96
75773;BMP280;64381;0.000;0.000;2022-12-18T05:04:02;96444.47;;;18.97
75773;BMP280;64381;0.000;0.000;2022-12-18T05:06:28;96450.59;;;18.95
75773;BMP280;64381;0.000;0.000;2022-12-18T05:08:53;96450.59;;;18.95
75773;BMP280;64381;0.000;0.000;2022-12-18T05:11:18;96450.59;;;18.95
75773;BMP280;64381;0.000;0.000;2022-12-18T05:13:44;96457.63;;;18.96
75773;BMP280;64381;0.000;0.000;2022-12-18T05:16:10;96459.63;;;18.96
75773;BMP280;64381;0.000;0.000;2022-12-18T05:18:36;96456.13;;;18.95
75773;BMP280;64381;0.000;0.000;2022-12-18T05:21:02;96454.09;;;18.96
75773;BMP280;64381;0.000;0.000;2022-12-18T05:23:28;96467.94;;;18.96
75773;BMP280;64381;0.000;0.000;2022-12-18T05:25:58;96456.88;;;18.96
75773;BMP280;64381;0.000;0.000;2022-12-18T05:28:25;96464.41;;;18.95
75773;BMP280;64381;0.000;0.000;2022-12-18T05:30:56;96467.34;;;18.97
75773;BMP280;64381;0.000;0.000;2022-12-18T05:33:23;96466.59;;;18.97
75773;BMP280;64381;0.000;0.000;2022-12-18T05:35:53;96459.63;;;18.96
75773;BMP280;64381;0.000;0.000;2022-12-18T05:38:20;96463.66;;;18.95
75773;BMP280;64381;0.000;0.000;2022-12-18T05:40:47;96460.38;;;18.96
75773;BMP280;64381;0.000;0.000;2022-12-18T05:43:12;96458.13;;;18.95
75773;BMP280;64381;0.000;0.000;2022-12-18T05:45:38;96474.72;;;18.95
75773;BMP280;64381;0.000;0.000;2022-12-18T05:48:04;96472.69;;;18.95
75773;BMP280;64381;0.000;0.000;2022-12-18T05:50:29;96479.50;;;18.94
75773;BMP280;64381;0.000;0.000;2022-12-18T05:52:55;96464.91;;;18.94
75773;BMP280;64381;0.000;0.000;2022-12-18T05:55:20;96471.94;;;18.95
75773;BMP280;64381;0.000;0.000;2022-12-18T05:57:45;96480.25;;;18.95
75773;BMP280;64381;0.000;0.000;2022-12-18T06:00:11;96485.03;;;18.94
75773;BMP280;64381;0.000;0.000;2022-12-18T06:02:36;96486.53;;;18.95
75773;BMP280;64381;0.000;0.000;2022-12-18T06:05:02;96473.97;;;18.94
75773;BMP280;64381;0.000;0.000;2022-12-18T06:07:27;96481.00;;;18.95
75773;BMP280;64381;0.000;0.000;2022-12-18T06:09:52;96488.53;;;18.95
75773;BMP280;64381;0.000;0.000;2022-12-18T06:12:17;96479.50;;;18.94
75773;BMP280;64381;0.000;0.000;2022-12-18T06:14:43;96487.78;;;18.94
75773;BMP280;64381;0.000;0.000;2022-12-18T06:17:08;96486.28;;;18.93
75773;BMP280;64381;0.000;0.000;2022-12-18T06:19:34;96490.56;;;18.94
75773;BMP280;64381;0.000;0.000;2022-12-18T06:21:59;96485.53;;;18.93
75773;BMP280;64381;0.000;0.000;2022-12-18T06:24:24;96480.00;;;18.93
75773;BMP280;64381;0.000;0.000;2022-12-18T06:26:49;96481.50;;;18.94
75773;BMP280;64381;0.000;0.000;2022-12-18T06:29:14;96486.28;;;18.93
75773;BMP280;64381;0.000;0.000;2022-12-18T06:31:40;96494.06;;;18.95
75773;BMP280;64381;0.000;0.000;2022-12-18T06:34:05;96500.13;;;18.93
75773;BMP280;64381;0.000;0.000;2022-12-18T06:36:30;96499.38;;;18.93
75773;BMP280;64381;0.000;0.000;2022-12-18T06:38:56;96502.13;;;18.93
75773;BMP280;64381;0.000;0.000;2022-12-18T06:41:21;96499.38;;;18.93
75773;BMP280;64381;0.000;0.000;2022-12-18T06:43:47;96501.63;;;18.94
75773;BMP280;64381;0.000;0.000;2022-12-18T06:46:12;96495.84;;;18.92
75773;BMP280;64381;0.000;0.000;2022-12-18T06:48:37;96507.66;;;18.93
75773;BMP280;64381;0.000;0.000;2022-12-18T06:51:03;96507.66;;;18.93
75773;BMP280;64381;0.000;0.000;2022-12-18T06:53:29;96518.97;;;18.95
75773;BMP280;64381;0.000;0.000;2022-12-18T06:56:06;96518.22;;;18.94
75773;BMP280;64381;0.000;0.000;2022-12-18T06:58:32;96515.44;;;18.94
75773;BMP280;64381;0.000;0.000;2022-12-18T07:01:04;96521.72;;;18.95
75773;BMP280;64381;0.000;0.000;2022-12-18T07:03:30;96525.00;;;18.93
75773;BMP280;64381;0.000;0.000;2022-12-18T07:05:55;96528.50;;;18.94
75773;BMP280;64381;0.000;0.000;2022-12-18T07:08:20;96532.53;;;18.93
75773;BMP280;64381;0.000;0.000;2022-12-18T07:10:45;96537.31;;;18.92
75773;BMP280;64381;0.000;0.000;2022-12-18T07:13:10;96535.31;;;18.93
75773;BMP280;64381;0.000;0.000;2022-12-18T07:15:36;96538.81;;;18.93
75773;BMP280;64381;0.000;0.000;2022-12-18T07:18:01;96543.59;;;18.93
75773;BMP280;64381;0.000;0.000;2022-12-18T07:20:26;96544.88;;;18.92
75773;BMP280;64381;0.000;0.000;2022-12-18T07:22:51;96543.59;;;18.93
75773;BMP280;64381;0.000;0.000;2022-12-18T07:25:17;96543.59;;;18.93
75773;BMP280;64381;0.000;0.000;2022-12-18T07:27:42;96549.88;;;18.93
75773;BMP280;64381;0.000;0.000;2022-12-18T07:30:08;96559.69;;;18.94
75773;BMP280;64381;0.000;0.000;2022-12-18T07:32:33;96560.94;;;18.93
75773;BMP280;64381;0.000;0.000;2022-12-18T07:34:59;96567.97;;;18.94
75773;BMP280;64381;0.000;0.000;2022-12-18T07:37:24;96557.44;;;18.93
75773;BMP280;64381;0.000;0.000;2022-12-18T07:39:49;96565.72;;;18.93
75773;BMP280;64381;0.000;0.000;2022-12-18T07:42:14;96569.22;;;18.93
75773;BMP280;64381;0.000;0.000;2022-12-18T07:44:40;96556.66;;;18.92
75773;BMP280;64381;0.000;0.000;2022-12-18T07:47:05;96555.41;;;18.93
75773;BMP280;64381;0.000;0.000;2022-12-18T07:49:30;96553.91;;;18.92
75773;BMP280;64381;0.000;0.000;2022-12-18T07:51:56;96557.44;;;18.93
75773;BMP280;64381;0.000;0.000;2022-12-18T07:54:22;96551.16;;;18.92
75773;BMP280;64381;0.000;0.000;2022-12-18T07:56:47;96539.34;;;18.92
75773;BMP280;64381;0.000;0.000;2022-12-18T07:59:13;96547.66;;;18.92
75773;BMP280;64381;0.000;0.000;2022-12-18T08:01:38;96550.41;;;18.92
75773;BMP280;64381;0.000;0.000;2022-12-18T08:04:03;96556.66;;;18.92
75773;BMP280;64381;0.000;0.000;2022-12-18T08:06:28;96564.97;;;18.92
75773;BMP280;64381;0.000;0.000;2022-12-18T08:08:55;96556.66;;;18.92
75773;BMP280;64381;0.000;0.000;2022-12-18T08:11:21;96563.72;;;18.93
75773;BMP280;64381;0.000;0.000;2022-12-18T08:13:46;96567.72;;;18.92
75773;BMP280;64381;0.000;0.000;2022-12-18T08:16:11;96566.47;;;18.93
75773;BMP280;64381;0.000;0.000;2022-12-18T08:18:37;96576.03;;;18.92
75773;BMP280;64381;0.000;0.000;2022-12-18T08:21:23;96573.50;;;18.94
75773;BMP280;64381;0.000;0.000;2022-12-18T08:23:49;96584.31;;;18.92
75773;BMP280;64381;0.000;0.000;2022-12-18T08:26:15;96574.56;;;18.91
75773;BMP280;64381;0.000;0.000;2022-12-18T08:28:40;96580.84;;;18.92
75773;BMP280;64381;0.000;0.000;2022-12-18T08:31:06;96587.84;;;18.93
75773;BMP280;64381;0.000;0.000;2022-12-18T08:33:32;96585.06;;;18.93
75773;BMP280;64381;0.000;0.000;2022-12-18T08:36:00;96583.06;;;18.93
75773;BMP280;64381;0.000;0.000;2022-12-18T08:38:26;96584.31;;;18.92
75773;BMP280;64381;0.000;0.000;2022-12-18T08:40:59;96583.06;;;18.93
75773;BMP280;64381;0.000;0.000;2022-12-18T08:43:24;96583.59;;;18.92
75773;BMP280;64381;0.000;0.000;2022-12-18T08:45:49;96574.56;;;18.91
75773;BMP280;64381;0.000;0.000;2022-12-18T08:48:15;96580.84;;;18.92
75773;BMP280;64381;0.000;0.000;2022-12-18T08:50:40;96588.59;;;18.93
75773;BMP280;64381;0.000;0.000;2022-12-18T08:53:06;96582.31;;;18.93
75773;BMP280;64381;0.000;0.000;2022-12-18T08:55:31;96592.63;;;18.92
75773;BMP280;64381;0.000;0.000;2022-12-18T08:57:56;96588.38;;;18.91
75773;BMP280;64381;0.000;0.000;2022-12-18T09:00:21;96584.31;;;18.92
75773;BMP280;64381;0.000;0.000;2022-12-18T09:02:47;96591.91;;;18.92
75773;BMP280;64381;0.000;0.000;2022-12-18T09:05:12;96587.09;;;18.92
75773;BMP280;64381;0.000;0.000;2022-12-18T09:07:37;96594.66;;;18.92
75773;BMP280;64381;0.000;0.000;2022-12-18T09:10:03;96591.91;;;18.92
75773;BMP280;64381;0.000;0.000;2022-12-18T09:12:28;96594.66;;;18.92
75773;BMP280;64381;0.000;0.000;2022-12-18T09:14:53;96593.91;;;18.91
75773;BMP280;64381;0.000;0.000;2022-12-18T09:17:19;96600.19;;;18.92
75773;BMP280;64381;0.000;0.000;2022-12-18T09:19:44;96596.66;;;18.91
75773;BMP280;64381;0.000;0.000;2022-12-18T09:22:09;96593.91;;;18.91
75773;BMP280;64381;0.000;0.000;2022-12-18T09:24:35;96586.38;;;18.92
75773;BMP280;64381;0.000;0.000;2022-12-18T09:27:00;96589.84;;;18.92
75773;BMP280;64381;0.000;0.000;2022-12-18T09:29:25;96588.38;;;18.91
75773;BMP280;64381;0.000;0.000;2022-12-18T09:31:50;96593.91;;;18.91
75773;BMP280;64381;0.000;0.000;2022-12-18T09:34:16;96587.09;;;18.92
75773;BMP280;64381;0.000;0.000;2022-12-18T09:36:41;96586.16;;;18.90
75773;BMP280;64381;0.000;0.000;2022-12-18T09:39:06;96592.44;;;18.90
75773;BMP280;64381;0.000;0.000;2022-12-18T09:44:09;96595.38;;;18.92
75773;BMP280;64381;0.000;0.000;2022-12-18T09:46:39;96593.91;;;18.91
75773;BMP280;64381;0.000;0.000;2022-12-18T09:49:11;96594.13;;;18.93
75773;BMP280;64381;0.000;0.000;2022-12-18T09:52:02;96597.41;;;18.92
75773;BMP280;64381;0.000;0.000;2022-12-18T09:54:38;96591.91;;;18.92
75773;BMP280;64381;0.000;0.000;2022-12-18T09:57:14;96584.84;;;18.91
75773;BMP280;64381;0.000;0.000;2022-12-18T09:59:42;96584.84;;;18.91
75773;BMP280;64381;0.000;0.000;2022-12-18T10:02:17;96580.28;;;18.93
75773;BMP280;64381;0.000;0.000;2022-12-18T10:04:43;96572.53;;;18.92
75773;BMP280;64381;0.000;0.000;2022-12-18T10:07:16;96574.75;;;18.93
75773;BMP280;64381;0.000;0.000;2022-12-18T10:10:13;96572.00;;;18.93
75773;BMP280;64381;0.000;0.000;2022-12-18T10:16:19;96574.75;;;18.93
75773;BMP280;64381;0.000;0.000;2022-12-18T10:21:20;96551.91;;;18.93
75773;BMP280;64381;0.000;0.000;2022-12-18T10:24:14;96557.44;;;18.93
75773;BMP280;64381;0.000;0.000;2022-12-18T10:26:41;96555.19;;;18.91
75773;BMP280;64381;0.000;0.000;2022-12-18T10:29:11;96552.44;;;18.91
75773;BMP280;64381;0.000;0.000;2022-12-18T10:31:37;96549.66;;;18.91
75773;BMP280;64381;0.000;0.000;2022-12-18T10:34:02;96546.16;;;18.91
75773;BMP280;64381;0.000;0.000;2022-12-18T10:36:27;96538.59;;;18.91
75773;BMP280;64381;0.000;0.000;2022-12-18T10:38:52;96538.59;;;18.91
75773;BMP280;64381;0.000;0.000;2022-12-18T10:43:43;96539.16;;;18.90
75773;BMP280;64381;0.000;0.000;2022-12-18T10:48:36;96531.78;;;18.92
75773;BMP280;64381;0.000;0.000;2022-12-18T10:51:06;96540.09;;;18.92
75773;BMP280;64381;0.000;0.000;2022-12-18T10:53:33;96538.59;;;18.91
75773;BMP280;64381;0.000;0.000;2022-12-18T10:55:59;96541.38;;;18.91
75773;BMP280;64381;0.000;0.000;2022-12-18T10:58:29;96535.84;;;18.91
75773;BMP280;64381;0.000;0.000;2022-12-18T11:01:15;96538.59;;;18.91
75773;BMP280;64381;0.000;0.000;2022-12-18T11:03:45;96543.19;;;18.89
75773;BMP280;64381;0.000;0.000;2022-12-18T11:06:18;96541.38;;;18.91
75773;BMP280;64381;0.000;0.000;2022-12-18T11:08:57;96543.94;;;18.89
75773;BMP280;64381;0.000;0.000;2022-12-18T11:11:24;96547.97;;;18.88
75773;BMP280;64381;0.000;0.000;2022-12-18T11:14:01;96552.66;;;18.93
75773;BMP280;64381;0.000;0.000;2022-12-18T11:16:28;96553.19;;;18.92
75773;BMP280;64381;0.000;0.000;2022-12-18T11:18:54;96555.19;;;18.91
75773;BMP280;64381;0.000;0.000;2022-12-18T11:21:19;96552.66;;;18.93
75773;BMP280;64381;0.000;0.000;2022-12-18T11:23:52;96554.91;;;18.95
75773;BMP280;64381;0.000;0.000;2022-12-18T11:26:18;96555.41;;;18.93
75773;BMP280;64381;0.000;0.000;2022-12-18T11:28:53;96558.72;;;18.92
75773;BMP280;64381;0.000;0.000;2022-12-18T11:31:32;96553.06;;;18.97
75773;BMP280;64381;0.000;0.000;2022-12-18T11:34:14;96552.03;;;19.00
75773;BMP280;64381;0.000;0.000;2022-12-18T11:36:46;96555.84;;;18.97
75773;BMP280;64381;0.000;0.000;2022-12-18T11:39:31;96557.34;;;18.98
75773;BMP280;64381;0.000;0.000;2022-12-18T11:42:04;96546.09;;;18.96
75773;BMP280;64381;0.000;0.000;2022-12-18T11:44:55;96545.53;;;18.98
75773;BMP280;64381;0.000;0.000;2022-12-18T11:47:38;96531.69;;;18.98
75773;BMP280;64381;0.000;0.000;2022-12-18T11:50:25;96534.47;;;18.98
75773;BMP280;64381;0.000;0.000;2022-12-18T11:52:51;96528.00;;;18.95
75773;BMP280;64381;0.000;0.000;2022-12-18T11:55:29;96528.41;;;18.99
75773;BMP280;64381;0.000;0.000;2022-12-18T12:01:37;96525.16;;;19.01
75773;BMP280;64381;0.000;0.000;2022-12-18T12:07:11;96530.13;;;19.02
75773;BMP280;64381;0.000;0.000;2022-12-18T12:10:04;96522.25;;;19.06
75773;BMP280;64381;0.000;0.000;2022-12-18T12:18:53;96521.00;;;19.21
75773;BMP280;64381;0.000;0.000;2022-12-18T12:21:40;96518.56;;;19.17
75773;BMP280;64381;0.000;0.000;2022-12-18T12:33:04;96509.09;;;19.13
75773;BMP280;64381;0.000;0.000;2022-12-18T12:38:22;96519.50;;;19.06
75773;BMP280;64381;0.000;0.000;2022-12-18T12:40:54;96501.44;;;19.05
75773;BMP280;64381;0.000;0.000;2022-12-18T12:43:33;96495.16;;;19.05
75773;BMP280;64381;0.000;0.000;2022-12-18T12:46:06;96501.19;;;19.03
75773;BMP280;64381;0.000;0.000;2022-12-18T12:48:50;96494.72;;;19.01
75773;BMP280;64381;0.000;0.000;2022-12-18T12:51:26;96492.25;;;18.97
75773;BMP280;64381;0.000;0.000;2022-12-18T12:53:54;96492.25;;;18.97
75773;BMP280;64381;0.000;0.000;2022-12-18T12:56:21;96500.78;;;18.99
75773;BMP280;64381;0.000;0.000;2022-12-18T13:01:40;96493.00;;;18.98
75773;BMP280;64381;0.000;0.000;2022-12-18T13:04:31;96498.53;;;18.98
75773;BMP280;64381;0.000;0.000;2022-12-18T13:07:20;96505.78;;;19.01
75773;BMP280;64381;0.000;0.000;2022-12-18T13:12:58;96517.06;;;19.03
75773;BMP280;64381;0.000;0.000;2022-12-18T13:15:29;96513.34;;;19.00
75773;BMP280;64381;0.000;0.000;2022-12-18T13:20:37;96511.84;;;18.99
75773;BMP280;64381;0.000;0.000;2022-12-18T13:28:20;96520.88;;;19.00
75773;BMP280;64381;0.000;0.000;2022-12-18T13:30:53;96527.91;;;19.01
75773;BMP280;64381;0.000;0.000;2022-12-18T13:43:30;96534.38;;;19.03
75773;BMP280;64381;0.000;0.000;2022-12-18T13:46:17;96521.84;;;19.02
75773;BMP280;64381;0.000;0.000;2022-12-18T13:48:50;96519.81;;;19.03
75773;BMP280;64381;0.000;0.000;2022-12-18T13:51:17;96522.59;;;19.03
75773;BMP280;64381;0.000;0.000;2022-12-18T13:54:17;96523.31;;;19.03
75773;BMP280;64381;0.000;0.000;2022-12-18T13:56:43;96523.31;;;19.03
75773;BMP280;64381;0.000;0.000;2022-12-18T14:01:57;96510.44;;;19.06
75773;BMP280;64381;0.000;0.000;2022-12-18T14:04:24;96506.41;;;19.07
75773;BMP280;64381;0.000;0.000;2022-12-18T14:06:53;96502.56;;;19.10
75773;BMP280;64381;0.000;0.000;2022-12-18T14:09:29;96509.59;;;19.11
75773;BMP280;64381;0.000;0.000;2022-12-18T14:11:55;96504.81;;;19.12
75773;BMP280;64381;0.000;0.000;2022-12-18T14:14:21;96502.81;;;19.12
75773;BMP280;64381;0.000;0.000;2022-12-18T14:16:46;96508.09;;;19.10
75773;BMP280;64381;0.000;0.000;2022-12-18T14:19:16;96511.84;;;19.13
75773;BMP280;64381;0.000;0.000;2022-12-18T14:21:47;96510.34;;;19.12
75773;BMP280;64381;0.000;0.000;2022-12-18T14:24:16;96502.06;;;19.12
75773;BMP280;64381;0.000;0.000;2022-12-18T14:26:42;96511.63;;;19.11
75773;BMP280;64381;0.000;0.000;2022-12-18T14:29:18;96513.63;;;19.10
75773;BMP280;64381;0.000;0.000;2022-12-18T14:31:43;96516.72;;;19.06
75773;BMP280;64381;0.000;0.000;2022-12-18T14:34:15;96529.59;;;19.04
75773;BMP280;64381;0.000;0.000;2022-12-18T14:36:41;96534.69;;;19.00
75773;BMP280;64381;0.000;0.000;2022-12-18T14:39:17;96534.69;;;19.00
75773;BMP280;64381;0.000;0.000;2022-12-18T14:41:42;96520.13;;;18.99
75773;BMP280;64381;0.000;0.000;2022-12-18T14:44:11;96518.13;;;19.00
75773;BMP280;64381;0.000;0.000;2022-12-18T14:46:43;96507.91;;;19.08
75773;BMP280;64381;0.000;0.000;2022-12-18T14:49:18;96507.59;;;19.12
75773;BMP280;64381;0.000;0.000;2022-12-18T14:52:17;96502.56;;;19.10
75773;BMP280;64381;0.000;0.000;2022-12-18T14:54:46;96507.69;;;19.06
75773;BMP280;64381;0.000;0.000;2022-12-18T14:57:21;96507.69;;;19.06
75773;BMP280;64381;0.000;0.000;2022-12-18T14:59:47;96513.00;;;19.04
75773;BMP280;64381;0.000;0.000;2022-12-18T15:02:29;96522.25;;;19.06
75773;BMP280;64381;0.000;0.000;2022-12-18T15:05:16;96518.75;;;19.06
75773;BMP280;64381;0.000;0.000;2022-12-18T15:07:43;96520.56;;;19.03
75773;BMP280;64381;0.000;0.000;2022-12-18T15:10:20;96518.75;;;19.06
75773;BMP280;64381;0.000;0.000;2022-12-18T15:20:40;96515.78;;;19.04
75773;BMP280;64381;0.000;0.000;2022-12-18T15:23:26;96519.50;;;19.06
75773;BMP280;64381;0.000;0.000;2022-12-18T15:26:19;96520.78;;;19.05
75773;BMP280;64381;0.000;0.000;2022-12-18T15:28:46;96525.56;;;19.05
75773;BMP280;64381;0.000;0.000;2022-12-18T15:33:45;96518.22;;;19.08
75773;BMP280;64381;0.000;0.000;2022-12-18T15:36:13;96518.22;;;19.08
75773;BMP280;64381;0.000;0.000;2022-12-18T15:38:38;96518.22;;;19.08
75773;BMP280;64381;0.000;0.000;2022-12-18T15:41:04;96511.94;;;19.07
75773;BMP280;64381;0.000;0.000;2022-12-18T15:43:29;96517.47;;;19.07
75773;BMP280;64381;0.000;0.000;2022-12-18T15:45:55;96513.13;;;19.12
75773;BMP280;64381;0.000;0.000;2022-12-18T15:48:21;96510.59;;;19.14
75773;BMP280;64381;0.000;0.000;2022-12-18T15:50:48;96510.59;;;19.14
75773;BMP280;64381;0.000;0.000;2022-12-18T15:53:13;96504.31;;;19.13
75773;BMP280;64381;0.000;0.000;2022-12-18T15:55:38;96511.09;;;19.12
75773;BMP280;64381;0.000;0.000;2022-12-18T15:58:05;96512.91;;;19.10
75773;BMP280;64381;0.000;0.000;2022-12-18T16:00:32;96517.47;;;19.07